Time;durP1;ratioP1;P1;durP2;ratioP2;P2;SDS_P1;SDS_P2;PMS_P1;PMS_P2;Temp;Humidity;BMP_temperature;BMP_pressure;BME280_temperature;BME280_humidity;BME280_pressure;Samples;Min_cycle;Max_cycle;Signal;HPM_P1;HPM_P2
2021/09/29 00:02:14;;;;;;;62.20;39.57;;;;;;;;;;774576;180;919271;-64
2021/09/29 00:04:40;;;;;;;70.20;43.43;;;;;;;;;;767840;180;918904;-65
2021/09/29 00:07:05;;;;;;;59.13;40.50;;;;;;;;;;769696;180;918857;-65
2021/09/29 00:09:31;;;;;;;63.70;43.00;;;;;;;;;;761051;180;919187;-65
2021/09/29 00:11:57;;;;;;;61.47;40.50;;;;;;;;;;774576;180;918696;-64
2021/09/29 00:14:23;;;;;;;68.60;42.43;;;;;;;;;;768775;178;918876;-64
2021/09/29 00:16:49;;;;;;;57.87;41.77;;;;;;;;;;761369;180;919082;-64
2021/09/29 00:19:15;;;;;;;62.30;40.37;;;;;;;;;;764758;183;920202;-64
2021/09/29 00:21:40;;;;;;;60.50;38.53;;;;;;;;;;761730;182;919791;-65
2021/09/29 00:24:06;;;;;;;55.42;37.63;;;;;;;;;;743658;186;918321;-64
2021/09/29 00:26:32;;;;;;;59.77;39.97;;;;;;;;;;749350;184;918712;-64
2021/09/29 00:28:58;;;;;;;54.37;37.50;;;;;;;;;;748487;183;919545;-64
2021/09/29 00:31:35;;;;;;;60.03;40.50;;;;;;;;;;758304;183;926700;-64
2021/09/29 00:34:06;;;;;;;62.17;38.90;;;;;;;;;;743834;184;918408;-65
2021/09/29 00:36:29;;;;;;;58.53;40.70;;;;;;;;;;765601;183;919510;-64
2021/09/29 00:38:55;;;;;;;61.27;39.93;;;;;;;;;;743444;186;919353;-65
2021/09/29 00:41:21;;;;;;;64.03;40.55;;;;;;;;;;770029;180;918892;-64
2021/09/29 00:43:47;;;;;;;57.87;40.77;;;;;;;;;;761143;184;924028;-64
2021/09/29 00:46:13;;;;;;;70.47;43.37;;;;;;;;;;767800;180;919497;-64
2021/09/29 00:48:39;;;;;;;63.23;43.33;;;;;;;;;;756654;183;918770;-64
2021/09/29 00:51:05;;;;;;;59.30;40.93;;;;;;;;;;756709;182;936997;-64
2021/09/29 00:53:30;;;;;;;65.13;41.50;;;;;;;;;;763763;184;918537;-66
2021/09/29 00:55:56;;;;;;;66.37;45.47;;;;;;;;;;758711;183;919769;-64
2021/09/29 00:58:22;;;;;;;66.70;43.27;;;;;;;;;;744563;187;919206;-64
2021/09/29 01:00:48;;;;;;;66.40;43.60;;;;;;;;;;764966;183;919332;-64
2021/09/29 01:03:14;;;;;;;64.70;43.60;;;;;;;;;;762593;183;919302;-64
2021/09/29 01:05:40;;;;;;;65.05;42.40;;;;;;;;;;761677;183;918614;-64
2021/09/29 01:08:08;;;;;;;66.30;43.80;;;;;;;;;;761046;183;926755;-64
2021/09/29 01:10:34;;;;;;;72.83;44.50;;;;;;;;;;748306;187;721791;-63
2021/09/29 01:13:06;;;;;;;74.23;42.23;;;;;;;;;;750993;184;918680;-63
2021/09/29 01:15:32;;;;;;;66.83;43.87;;;;;;;;;;757704;183;919630;-66
2021/09/29 01:17:58;;;;;;;77.43;47.43;;;;;;;;;;766134;183;918847;-63
2021/09/29 01:20:25;;;;;;;69.13;43.53;;;;;;;;;;745983;187;918382;-63
2021/09/29 01:22:57;;;;;;;72.97;44.13;;;;;;;;;;756831;184;921305;-64
2021/09/29 01:25:29;;;;;;;86.27;49.27;;;;;;;;;;761498;183;919406;-64
2021/09/29 01:27:55;;;;;;;81.53;43.20;;;;;;;;;;770106;182;919569;-65
2021/09/29 01:30:21;;;;;;;78.43;45.67;;;;;;;;;;762776;182;922329;-64
2021/09/29 01:32:46;;;;;;;72.27;47.37;;;;;;;;;;773988;180;919992;-63
2021/09/29 01:35:12;;;;;;;101.53;46.47;;;;;;;;;;760680;183;918933;-64
2021/09/29 01:37:38;;;;;;;87.53;45.40;;;;;;;;;;769963;183;918658;-65
2021/09/29 01:40:05;;;;;;;72.37;44.30;;;;;;;;;;764174;183;918807;-64
2021/09/29 01:42:30;;;;;;;77.72;44.45;;;;;;;;;;761019;183;920842;-64
2021/09/29 01:44:56;;;;;;;81.47;43.97;;;;;;;;;;768148;183;918932;-64
2021/09/29 01:47:22;;;;;;;78.27;42.40;;;;;;;;;;760935;183;1021941;-65
2021/09/29 01:49:48;;;;;;;70.70;42.63;;;;;;;;;;750559;183;920283;-64
2021/09/29 01:52:14;;;;;;;79.97;42.80;;;;;;;;;;756359;183;920811;-64
2021/09/29 01:54:40;;;;;;;71.80;41.80;;;;;;;;;;752213;183;918621;-65
2021/09/29 01:57:06;;;;;;;74.93;42.97;;;;;;;;;;771952;180;919546;-64
2021/09/29 01:59:31;;;;;;;70.57;42.87;;;;;;;;;;769506;180;919465;-64
2021/09/29 02:01:57;;;;;;;80.53;46.47;;;;;;;;;;776891;180;918616;-64
2021/09/29 02:04:23;;;;;;;73.33;43.87;;;;;;;;;;751785;181;918424;-65
2021/09/29 02:06:49;;;;;;;70.33;41.33;;;;;;;;;;746191;187;920445;-64
2021/09/29 02:09:15;;;;;;;75.70;41.40;;;;;;;;;;747821;187;917609;-65
2021/09/29 02:11:41;;;;;;;77.40;45.97;;;;;;;;;;759472;182;920923;-65
2021/09/29 02:14:06;;;;;;;76.75;45.17;;;;;;;;;;759944;183;919768;-65
2021/09/29 02:16:32;;;;;;;84.03;46.40;;;;;;;;;;772203;180;918647;-64
2021/09/29 02:18:58;;;;;;;72.80;45.17;;;;;;;;;;748552;183;922874;-64
2021/09/29 02:21:24;;;;;;;78.85;44.15;;;;;;;;;;772018;180;914153;-64
2021/09/29 02:23:50;;;;;;;80.40;44.93;;;;;;;;;;762767;180;945378;-63
2021/09/29 02:26:16;;;;;;;74.93;44.50;;;;;;;;;;762939;181;919866;-64
2021/09/29 02:28:41;;;;;;;75.97;44.37;;;;;;;;;;757345;183;918595;-63
2021/09/29 02:31:07;;;;;;;76.28;44.63;;;;;;;;;;757630;183;922029;-63
2021/09/29 02:33:33;;;;;;;67.85;42.65;;;;;;;;;;771711;180;911623;-63
2021/09/29 02:35:59;;;;;;;83.17;45.77;;;;;;;;;;759630;182;920136;-64
2021/09/29 02:38:25;;;;;;;81.17;45.70;;;;;;;;;;749527;186;1014677;-63
2021/09/29 02:40:51;;;;;;;78.10;46.77;;;;;;;;;;752585;186;920211;-64
2021/09/29 02:43:16;;;;;;;82.93;45.30;;;;;;;;;;761908;183;916127;-64
2021/09/29 02:45:44;;;;;;;87.73;45.43;;;;;;;;;;743066;187;919418;-63
2021/09/29 02:48:08;;;;;;;77.57;43.10;;;;;;;;;;753443;183;918902;-63
2021/09/29 02:50:34;;;;;;;79.57;43.67;;;;;;;;;;760880;182;920561;-64
2021/09/29 02:53:00;;;;;;;75.03;44.60;;;;;;;;;;743931;183;920793;-64
2021/09/29 02:55:26;;;;;;;70.83;42.17;;;;;;;;;;751677;185;919001;-64
2021/09/29 02:57:51;;;;;;;74.10;44.10;;;;;;;;;;747075;186;917739;-64
2021/09/29 03:00:17;;;;;;;72.83;42.97;;;;;;;;;;748915;184;918865;-64
2021/09/29 03:02:43;;;;;;;83.03;45.53;;;;;;;;;;750054;184;916947;-64
2021/09/29 03:05:09;;;;;;;72.27;43.27;;;;;;;;;;761397;182;919325;-65
2021/09/29 03:07:35;;;;;;;66.60;42.47;;;;;;;;;;756947;183;920324;-64
2021/09/29 03:10:01;;;;;;;75.27;45.30;;;;;;;;;;756582;182;919600;-64
2021/09/29 03:12:27;;;;;;;78.40;42.43;;;;;;;;;;747202;187;918124;-62
2021/09/29 03:14:52;;;;;;;78.23;42.50;;;;;;;;;;762606;183;917377;-64
2021/09/29 03:17:18;;;;;;;78.47;44.10;;;;;;;;;;760345;183;914918;-64
2021/09/29 03:19:44;;;;;;;77.90;43.50;;;;;;;;;;744777;184;919336;-64
2021/09/29 03:22:10;;;;;;;75.83;44.07;;;;;;;;;;757749;184;920280;-66
2021/09/29 03:24:36;;;;;;;77.83;43.80;;;;;;;;;;741887;187;919372;-63
2021/09/29 03:27:02;;;;;;;81.87;46.83;;;;;;;;;;763695;180;919738;-64
2021/09/29 03:29:28;;;;;;;96.90;52.63;;;;;;;;;;766363;184;918397;-64
2021/09/29 03:31:54;;;;;;;87.57;47.73;;;;;;;;;;754305;183;923691;-65
2021/09/29 03:34:20;;;;;;;78.37;46.92;;;;;;;;;;747962;184;925240;-65
2021/09/29 03:36:46;;;;;;;80.47;43.60;;;;;;;;;;766137;184;918232;-64
2021/09/29 03:39:11;;;;;;;79.07;44.07;;;;;;;;;;759583;183;919363;-65
2021/09/29 03:41:37;;;;;;;78.10;45.93;;;;;;;;;;764748;180;917581;-65
2021/09/29 03:44:03;;;;;;;86.27;44.97;;;;;;;;;;762880;180;921126;-64
2021/09/29 03:46:29;;;;;;;72.18;41.83;;;;;;;;;;733697;190;916447;-65
2021/09/29 03:48:55;;;;;;;77.27;43.90;;;;;;;;;;748902;183;922669;-65
2021/09/29 03:51:21;;;;;;;81.70;45.23;;;;;;;;;;744303;185;916128;-64
2021/09/29 03:53:47;;;;;;;80.83;43.27;;;;;;;;;;770511;183;715286;-66
2021/09/29 03:56:12;;;;;;;86.67;45.07;;;;;;;;;;760349;183;913930;-64
2021/09/29 03:58:38;;;;;;;84.80;43.93;;;;;;;;;;745522;183;921991;-66
2021/09/29 04:01:04;;;;;;;72.70;43.30;;;;;;;;;;750774;184;909812;-64
2021/09/29 04:03:30;;;;;;;87.37;44.70;;;;;;;;;;746707;183;913124;-64
2021/09/29 04:05:56;;;;;;;77.40;43.22;;;;;;;;;;746113;185;929161;-65
2021/09/29 04:08:22;;;;;;;75.73;44.20;;;;;;;;;;747407;185;911656;-63
2021/09/29 04:10:47;;;;;;;80.00;45.23;;;;;;;;;;752584;183;918066;-66
2021/09/29 04:13:13;;;;;;;81.60;45.10;;;;;;;;;;749218;184;915449;-65
2021/09/29 04:15:39;;;;;;;82.43;45.30;;;;;;;;;;760912;183;914937;-65
2021/09/29 04:18:05;;;;;;;75.90;47.60;;;;;;;;;;774459;180;627356;-65
2021/09/29 04:20:31;;;;;;;86.80;47.30;;;;;;;;;;764239;180;916379;-66
2021/09/29 04:22:57;;;;;;;82.10;46.67;;;;;;;;;;761950;183;915058;-67
2021/09/29 04:25:22;;;;;;;81.40;46.93;;;;;;;;;;772885;180;919397;-66
2021/09/29 04:27:48;;;;;;;89.13;47.43;;;;;;;;;;759062;184;917288;-65
2021/09/29 04:30:14;;;;;;;85.60;46.67;;;;;;;;;;769372;180;960908;-66
2021/09/29 04:32:40;;;;;;;100.03;49.90;;;;;;;;;;766150;182;918976;-66
2021/09/29 04:35:06;;;;;;;92.13;48.80;;;;;;;;;;753483;180;920018;-66
2021/09/29 04:37:32;;;;;;;100.30;52.40;;;;;;;;;;736994;190;624879;-67
2021/09/29 04:39:58;;;;;;;92.65;50.35;;;;;;;;;;749571;186;919255;-67
2021/09/29 04:42:24;;;;;;;81.97;43.13;;;;;;;;;;748288;187;914813;-66
2021/09/29 04:44:50;;;;;;;90.70;46.40;;;;;;;;;;745312;187;1015238;-66
2021/09/29 04:47:16;;;;;;;92.40;47.03;;;;;;;;;;754978;183;919898;-66
2021/09/29 04:49:41;;;;;;;88.53;48.47;;;;;;;;;;766604;180;919398;-67
2021/09/29 04:52:08;;;;;;;97.10;47.80;;;;;;;;;;762053;180;920239;-66
2021/09/29 04:54:33;;;;;;;89.63;48.17;;;;;;;;;;748486;183;919233;-66
2021/09/29 04:56:59;;;;;;;92.87;47.57;;;;;;;;;;757053;184;919014;-66
2021/09/29 04:59:25;;;;;;;92.37;50.10;;;;;;;;;;759682;183;919577;-67
2021/09/29 05:01:53;;;;;;;94.87;46.97;;;;;;;;;;760554;183;918574;-67
2021/09/29 05:04:17;;;;;;;93.40;48.50;;;;;;;;;;755129;183;926028;-65
2021/09/29 05:06:43;;;;;;;95.97;49.80;;;;;;;;;;770162;180;918067;-66
2021/09/29 05:09:09;;;;;;;88.63;49.77;;;;;;;;;;761779;183;919034;-67
2021/09/29 05:11:34;;;;;;;94.40;49.70;;;;;;;;;;767851;181;920165;-66
2021/09/29 05:14:00;;;;;;;86.03;48.37;;;;;;;;;;765337;180;918761;-66
2021/09/29 05:16:26;;;;;;;82.13;45.30;;;;;;;;;;759519;184;919908;-66
2021/09/29 05:18:52;;;;;;;86.43;44.43;;;;;;;;;;748265;187;919111;-66
2021/09/29 05:21:18;;;;;;;88.53;46.30;;;;;;;;;;764170;183;912665;-66
2021/09/29 05:23:44;;;;;;;84.87;44.17;;;;;;;;;;758346;182;919619;-66
2021/09/29 05:26:09;;;;;;;92.70;46.80;;;;;;;;;;749492;183;920481;-67
2021/09/29 05:28:35;;;;;;;85.77;46.13;;;;;;;;;;763460;183;918475;-66
2021/09/29 05:31:01;;;;;;;93.83;46.60;;;;;;;;;;757729;183;919516;-66
2021/09/29 05:33:27;;;;;;;87.40;45.17;;;;;;;;;;760929;183;918667;-67
2021/09/29 05:35:53;;;;;;;83.13;46.37;;;;;;;;;;747861;186;918942;-66
2021/09/29 05:38:19;;;;;;;86.87;44.10;;;;;;;;;;750287;187;921996;-66
2021/09/29 05:40:44;;;;;;;83.85;46.15;;;;;;;;;;756627;183;919035;-66
2021/09/29 05:43:10;;;;;;;90.00;47.20;;;;;;;;;;766314;180;918717;-66
2021/09/29 05:45:36;;;;;;;87.83;46.43;;;;;;;;;;773853;182;908595;-66
2021/09/29 05:48:02;;;;;;;94.60;47.20;;;;;;;;;;760982;183;918938;-66
2021/09/29 05:50:28;;;;;;;91.77;47.37;;;;;;;;;;740547;187;918438;-66
2021/09/29 05:52:54;;;;;;;79.60;45.80;;;;;;;;;;764031;183;921825;-67
2021/09/29 05:55:20;;;;;;;86.80;45.65;;;;;;;;;;760451;180;918214;-66
2021/09/29 05:57:45;;;;;;;89.90;48.20;;;;;;;;;;766683;180;919451;-66
2021/09/29 06:00:12;;;;;;;85.87;45.60;;;;;;;;;;768789;182;925499;-66
2021/09/29 06:02:38;;;;;;;92.67;47.77;;;;;;;;;;763084;183;918446;-66
2021/09/29 06:05:04;;;;;;;84.20;44.67;;;;;;;;;;772703;180;920883;-68
2021/09/29 06:07:29;;;;;;;85.53;47.50;;;;;;;;;;767433;180;919712;-66
2021/09/29 06:09:56;;;;;;;89.70;44.40;;;;;;;;;;765415;180;918773;-66
2021/09/29 06:12:21;;;;;;;91.50;49.37;;;;;;;;;;746127;185;918852;-67
2021/09/29 06:14:51;;;;;;;93.13;46.20;;;;;;;;;;756569;182;918869;-66
2021/09/29 06:17:22;;;;;;;85.03;46.63;;;;;;;;;;768409;181;919000;-66
2021/09/29 06:19:42;;;;;;;86.27;47.00;;;;;;;;;;767946;180;918879;-68
2021/09/29 06:22:08;;;;;;;94.03;49.90;;;;;;;;;;771638;180;918717;-67
2021/09/29 06:24:34;;;;;;;78.40;45.60;;;;;;;;;;764350;180;919615;-66
2021/09/29 06:26:59;;;;;;;96.83;46.70;;;;;;;;;;776281;180;918873;-63
2021/09/29 06:29:25;;;;;;;89.20;47.10;;;;;;;;;;770593;180;1212844;-64
2021/09/29 06:31:52;;;;;;;85.28;47.88;;;;;;;;;;749138;187;958075;-65
2021/09/29 06:34:18;;;;;;;109.97;46.23;;;;;;;;;;764940;182;917984;-64
2021/09/29 06:36:44;;;;;;;88.40;46.35;;;;;;;;;;761982;183;920829;-65
2021/09/29 06:39:10;;;;;;;102.37;51.63;;;;;;;;;;760022;184;919849;-64
2021/09/29 06:41:35;;;;;;;96.33;49.90;;;;;;;;;;746845;187;924263;-64
2021/09/29 06:44:01;;;;;;;93.30;49.50;;;;;;;;;;747932;187;919814;-63
2021/09/29 06:46:27;;;;;;;90.73;45.50;;;;;;;;;;758967;183;919984;-65
2021/09/29 06:48:53;;;;;;;84.83;44.23;;;;;;;;;;754097;183;918685;-65
2021/09/29 06:51:19;;;;;;;78.33;41.63;;;;;;;;;;761472;183;918018;-65
2021/09/29 06:53:45;;;;;;;85.43;46.00;;;;;;;;;;764271;180;918535;-65
2021/09/29 06:56:10;;;;;;;87.87;45.87;;;;;;;;;;759758;183;919642;-64
2021/09/29 06:58:37;;;;;;;80.40;43.47;;;;;;;;;;768135;183;914625;-65
2021/09/29 07:01:02;;;;;;;88.07;42.10;;;;;;;;;;762201;183;915956;-65
2021/09/29 07:03:28;;;;;;;79.77;46.73;;;;;;;;;;760286;183;918881;-65
2021/09/29 07:05:55;;;;;;;77.20;43.00;;;;;;;;;;754666;184;968787;-65
2021/09/29 07:08:20;;;;;;;88.00;46.80;;;;;;;;;;763539;183;918594;-65
2021/09/29 07:10:46;;;;;;;87.97;44.70;;;;;;;;;;760016;180;919242;-65
2021/09/29 07:13:11;;;;;;;74.33;42.70;;;;;;;;;;763304;184;918715;-65
2021/09/29 07:15:39;;;;;;;73.03;41.25;;;;;;;;;;750497;185;918220;-65
2021/09/29 07:18:04;;;;;;;81.30;44.70;;;;;;;;;;766381;180;930717;-64
2021/09/29 07:20:29;;;;;;;74.55;41.13;;;;;;;;;;770491;180;919625;-65
2021/09/29 07:22:56;;;;;;;76.93;44.53;;;;;;;;;;755530;183;919001;-65
2021/09/29 07:25:21;;;;;;;83.67;45.23;;;;;;;;;;761746;183;1125652;-65
2021/09/29 07:27:47;;;;;;;76.97;42.70;;;;;;;;;;773724;180;919742;-66
2021/09/29 07:30:13;;;;;;;77.37;42.77;;;;;;;;;;767874;180;919129;-65
2021/09/29 07:32:38;;;;;;;80.17;40.63;;;;;;;;;;762874;183;921601;-64
2021/09/29 07:35:04;;;;;;;90.57;46.97;;;;;;;;;;742586;187;1021242;-65
2021/09/29 07:37:30;;;;;;;87.73;45.67;;;;;;;;;;758754;184;981001;-64
2021/09/29 07:39:56;;;;;;;80.30;43.33;;;;;;;;;;757773;180;919243;-64
2021/09/29 07:42:22;;;;;;;80.47;43.47;;;;;;;;;;763741;180;991673;-65
2021/09/29 07:44:48;;;;;;;86.60;43.37;;;;;;;;;;757458;183;919638;-64
2021/09/29 07:47:13;;;;;;;84.87;45.83;;;;;;;;;;774643;180;919365;-64
2021/09/29 07:49:39;;;;;;;96.57;44.67;;;;;;;;;;758702;183;919611;-64
2021/09/29 07:52:06;;;;;;;78.13;43.20;;;;;;;;;;751130;183;921877;-66
2021/09/29 07:54:32;;;;;;;87.87;48.53;;;;;;;;;;766678;183;920249;-67
2021/09/29 07:56:57;;;;;;;87.30;48.67;;;;;;;;;;766351;183;916531;-65
2021/09/29 07:59:24;;;;;;;90.97;46.67;;;;;;;;;;744825;184;1815441;-65
2021/09/29 08:01:49;;;;;;;87.97;46.20;;;;;;;;;;766823;183;919474;-65
2021/09/29 08:04:19;;;;;;;96.20;47.00;;;;;;;;;;748878;183;916554;-66
2021/09/29 08:06:41;;;;;;;89.57;47.47;;;;;;;;;;741451;187;916397;-65
2021/09/29 08:09:07;;;;;;;84.80;47.40;;;;;;;;;;755101;182;919842;-64
2021/09/29 08:11:32;;;;;;;75.85;42.80;;;;;;;;;;764408;183;908751;-66
2021/09/29 08:13:58;;;;;;;78.53;45.67;;;;;;;;;;746645;184;916087;-66
2021/09/29 08:16:24;;;;;;;89.72;45.20;;;;;;;;;;769410;180;916167;-65
2021/09/29 08:18:50;;;;;;;85.13;44.57;;;;;;;;;;752963;184;921722;-66
2021/09/29 08:21:18;;;;;;;88.50;43.97;;;;;;;;;;747593;186;921981;-66
2021/09/29 08:23:43;;;;;;;90.83;47.13;;;;;;;;;;762063;182;920193;-66
2021/09/29 08:26:28;;;;;;;87.43;45.47;;;;;;;;;;769319;182;921299;-66
2021/09/29 08:28:43;;;;;;;87.70;46.50;;;;;;;;;;733619;187;916966;-66
2021/09/29 08:31:10;;;;;;;84.93;48.63;;;;;;;;;;743163;186;918705;-65
2021/09/29 08:33:46;;;;;;;84.82;47.35;;;;;;;;;;760902;182;921482;-66
2021/09/29 08:36:03;;;;;;;84.90;44.83;;;;;;;;;;760017;183;915574;-65
2021/09/29 08:38:29;;;;;;;82.53;46.03;;;;;;;;;;756591;183;915422;-66
2021/09/29 08:41:04;;;;;;;88.53;46.70;;;;;;;;;;749940;183;919503;-66
2021/09/29 08:44:29;;;;;;;81.35;45.40;;;;;;;;;;751368;187;918633;-65
2021/09/29 08:46:08;;;;;;;87.82;46.90;;;;;;;;;;755200;183;919203;-65
2021/09/29 08:48:43;;;;;;;90.80;48.53;;;;;;;;;;756688;183;995471;-66
2021/09/29 08:56:41;;;;;;;86.37;48.80;;;;;;;;;;757682;181;918879;-66
2021/09/29 09:16:46;;;;;;;77.73;43.80;;;;;;;;;;761900;180;920014;-65
2021/09/29 09:19:12;;;;;;;81.33;44.03;;;;;;;;;;761954;183;919709;-65
2021/09/29 09:21:40;;;;;;;77.30;45.37;;;;;;;;;;758495;183;918371;-65
2021/09/29 09:24:14;;;;;;;78.10;45.37;;;;;;;;;;758159;183;926183;-64
2021/09/29 09:26:39;;;;;;;89.00;46.72;;;;;;;;;;758141;183;918347;-65
2021/09/29 09:29:06;;;;;;;80.00;46.33;;;;;;;;;;765497;183;920524;-66
2021/09/29 09:31:32;;;;;;;84.27;43.93;;;;;;;;;;767627;180;919411;-68
2021/09/29 09:33:59;;;;;;;84.05;47.55;;;;;;;;;;755667;182;917743;-66
2021/09/29 09:36:26;;;;;;;84.13;44.93;;;;;;;;;;754122;184;911979;-66
2021/09/29 09:38:51;;;;;;;87.40;47.30;;;;;;;;;;754462;182;920255;-65
2021/09/29 09:41:17;;;;;;;100.53;49.47;;;;;;;;;;753997;182;921253;-65
2021/09/29 09:43:43;;;;;;;86.77;47.13;;;;;;;;;;751653;183;920559;-65
2021/09/29 09:46:09;;;;;;;78.40;46.10;;;;;;;;;;761272;180;919213;-66
2021/09/29 09:48:35;;;;;;;83.73;45.97;;;;;;;;;;754965;183;915868;-66
2021/09/29 09:51:12;;;;;;;88.00;45.07;;;;;;;;;;751128;181;1229151;-66
2021/09/29 09:53:36;;;;;;;84.35;45.03;;;;;;;;;;760458;182;916183;-66
2021/09/29 09:56:08;;;;;;;84.43;44.57;;;;;;;;;;754159;183;913736;-67
2021/09/29 09:58:50;;;;;;;75.10;44.70;;;;;;;;;;760764;182;914723;-66
2021/09/29 10:01:17;;;;;;;82.30;45.60;;;;;;;;;;751452;183;921227;-66
2021/09/29 10:03:42;;;;;;;81.72;46.63;;;;;;;;;;747988;182;919339;-66
2021/09/29 10:06:08;;;;;;;84.90;46.07;;;;;;;;;;761423;183;920162;-66
2021/09/29 10:08:34;;;;;;;75.83;45.90;;;;;;;;;;757962;183;914041;-66
2021/09/29 10:11:10;;;;;;;83.13;45.60;;;;;;;;;;759185;181;919080;-67
2021/09/29 10:13:53;;;;;;;92.77;48.40;;;;;;;;;;756592;183;920237;-66
2021/09/29 10:23:58;;;;;;;68.73;43.43;;;;;;;;;;750869;183;920652;-66
2021/09/29 10:26:24;;;;;;;79.17;44.13;;;;;;;;;;751530;182;918943;-66
2021/09/29 10:28:50;;;;;;;82.43;44.43;;;;;;;;;;744323;187;918909;-66
2021/09/29 10:31:24;;;;;;;75.23;46.13;;;;;;;;;;760823;184;919405;-67
2021/09/29 10:33:45;;;;;;;80.43;45.43;;;;;;;;;;749588;183;919422;-65
2021/09/29 10:36:23;;;;;;;79.63;45.73;;;;;;;;;;751639;183;919138;-66
2021/09/29 10:41:26;;;;;;;68.23;42.20;;;;;;;;;;737586;187;917599;-66
2021/09/29 10:44:03;;;;;;;71.43;42.87;;;;;;;;;;746486;184;918943;-66
2021/09/29 11:07:11;;;;;;;46.33;30.83;;;;;;;;;;756374;183;918708;-66
2021/09/29 11:09:43;;;;;;;49.80;31.50;;;;;;;;;;760886;183;918563;-66
2021/09/29 11:12:06;;;;;;;46.00;29.93;;;;;;;;;;751150;184;920366;-66
2021/09/29 11:29:46;;;;;;;46.77;27.63;;;;;;;;;;750538;183;921080;-67
2021/09/29 11:32:16;;;;;;;42.33;26.45;;;;;;;;;;747111;185;920270;-66
2021/09/29 11:34:37;;;;;;;48.30;28.13;;;;;;;;;;766290;180;918503;-65
2021/09/29 11:37:23;;;;;;;42.08;26.77;;;;;;;;;;748470;186;920668;-66
2021/09/29 11:39:56;;;;;;;41.57;28.40;;;;;;;;;;759194;183;920566;-66
2021/09/29 11:49:58;;;;;;;50.03;25.27;;;;;;;;;;751201;183;921414;-66
2021/09/29 12:09:55;;;;;;;46.67;27.37;;;;;;;;;;771386;178;919249;-66
2021/09/29 12:12:23;;;;;;;44.07;28.00;;;;;;;;;;760978;183;919789;-66
2021/09/29 12:14:48;;;;;;;43.07;26.97;;;;;;;;;;756526;181;918852;-66
2021/09/29 12:17:14;;;;;;;36.10;26.70;;;;;;;;;;768884;180;918728;-67
2021/09/29 12:19:40;;;;;;;36.80;27.37;;;;;;;;;;773521;181;918789;-66
2021/09/29 12:22:08;;;;;;;47.93;29.43;;;;;;;;;;740311;187;928257;-66
2021/09/29 12:24:34;;;;;;;36.50;25.03;;;;;;;;;;748902;186;987316;-68
2021/09/29 12:27:00;;;;;;;42.53;27.03;;;;;;;;;;760668;183;919341;-66
2021/09/29 12:29:31;;;;;;;44.77;27.67;;;;;;;;;;763930;183;918798;-65
2021/09/29 12:32:05;;;;;;;47.83;27.53;;;;;;;;;;743545;183;918140;-66
2021/09/29 12:34:31;;;;;;;40.33;26.60;;;;;;;;;;761318;183;919619;-66
2021/09/29 12:36:54;;;;;;;42.00;27.23;;;;;;;;;;746127;187;917930;-64
2021/09/29 12:39:20;;;;;;;41.33;24.65;;;;;;;;;;748843;187;918965;-67
2021/09/29 12:41:48;;;;;;;39.23;25.77;;;;;;;;;;743563;187;918534;-67
2021/09/29 12:44:16;;;;;;;44.67;26.30;;;;;;;;;;758321;183;1121910;-66
2021/09/29 12:46:40;;;;;;;41.07;27.23;;;;;;;;;;767332;183;918309;-66
2021/09/29 12:49:12;;;;;;;41.73;27.10;;;;;;;;;;743770;186;920362;-66
2021/09/29 12:51:34;;;;;;;40.40;26.70;;;;;;;;;;757894;183;919414;-66
2021/09/29 12:54:04;;;;;;;43.70;27.27;;;;;;;;;;761867;182;629968;-66
2021/09/29 12:56:26;;;;;;;34.33;24.03;;;;;;;;;;768586;180;918818;-67
2021/09/29 12:58:51;;;;;;;42.33;26.30;;;;;;;;;;760053;184;922394;-66
2021/09/29 13:01:17;;;;;;;43.57;26.57;;;;;;;;;;767273;180;918713;-66
2021/09/29 13:03:43;;;;;;;39.80;24.67;;;;;;;;;;772236;180;918886;-66
2021/09/29 13:06:10;;;;;;;42.47;25.97;;;;;;;;;;768031;180;917889;-68
2021/09/29 13:08:35;;;;;;;36.47;24.67;;;;;;;;;;756852;183;919098;-66
2021/09/29 13:11:01;;;;;;;40.27;25.37;;;;;;;;;;772849;180;917376;-67
2021/09/29 13:13:26;;;;;;;40.27;25.33;;;;;;;;;;759081;183;918575;-67
2021/09/29 13:15:54;;;;;;;37.83;26.40;;;;;;;;;;748864;187;916839;-67
2021/09/29 13:18:26;;;;;;;45.80;27.33;;;;;;;;;;746111;187;919684;-66
2021/09/29 13:20:53;;;;;;;40.23;25.17;;;;;;;;;;746878;184;920474;-66
2021/09/29 13:23:22;;;;;;;35.27;25.57;;;;;;;;;;758432;183;919471;-66
2021/09/29 13:38:27;;;;;;;39.07;22.00;;;;;;;;;;759300;183;918987;-66
2021/09/29 13:40:53;;;;;;;33.07;21.93;;;;;;;;;;757437;183;919490;-67
2021/09/29 13:43:19;;;;;;;26.85;19.70;;;;;;;;;;757993;183;920113;-66
2021/09/29 13:45:45;;;;;;;38.00;21.40;;;;;;;;;;748698;183;920161;-68
2021/09/29 13:48:11;;;;;;;33.60;21.77;;;;;;;;;;758843;183;917271;-68
2021/09/29 13:50:37;;;;;;;32.57;20.97;;;;;;;;;;764520;183;914924;-67
2021/09/29 13:53:03;;;;;;;34.30;20.87;;;;;;;;;;746147;184;915727;-66
2021/09/29 13:55:30;;;;;;;29.13;20.80;;;;;;;;;;767835;180;627929;-67
2021/09/29 13:58:02;;;;;;;32.10;19.27;;;;;;;;;;770265;180;913257;-66
2021/09/29 14:00:36;;;;;;;31.20;20.53;;;;;;;;;;751004;186;916560;-67
2021/09/29 14:30:52;;;;;;;31.87;20.33;;;;;;;;;;744536;186;918645;-68
2021/09/29 14:33:26;;;;;;;28.23;19.60;;;;;;;;;;751040;184;918343;-67
2021/09/29 14:35:49;;;;;;;30.62;20.20;;;;;;;;;;752375;183;918557;-66
2021/09/29 14:38:15;;;;;;;30.60;19.13;;;;;;;;;;753915;185;918851;-67
2021/09/29 14:40:41;;;;;;;30.83;19.17;;;;;;;;;;759056;183;918367;-68
2021/09/29 14:43:07;;;;;;;25.63;18.10;;;;;;;;;;754928;183;918890;-67
2021/09/29 14:45:35;;;;;;;26.03;18.37;;;;;;;;;;754181;183;918284;-67
2021/09/29 14:47:58;;;;;;;27.43;18.30;;;;;;;;;;766700;180;918752;-68
2021/09/29 14:50:27;;;;;;;33.23;17.60;;;;;;;;;;771360;180;919138;-67
2021/09/29 14:52:56;;;;;;;24.30;16.73;;;;;;;;;;771558;180;923843;-68
2021/09/29 14:55:21;;;;;;;26.43;18.80;;;;;;;;;;748405;183;922363;-67
2021/09/29 14:57:46;;;;;;;25.60;17.70;;;;;;;;;;764858;180;919741;-69
2021/09/29 15:00:13;;;;;;;27.13;18.03;;;;;;;;;;738857;187;918759;-67
2021/09/29 15:02:38;;;;;;;25.93;15.27;;;;;;;;;;773887;180;918422;-67
2021/09/29 15:05:04;;;;;;;29.83;19.43;;;;;;;;;;767900;181;915772;-67
2021/09/29 15:07:30;;;;;;;23.70;17.23;;;;;;;;;;759491;180;920431;-67
2021/09/29 15:09:56;;;;;;;29.10;19.30;;;;;;;;;;766513;181;914425;-67
2021/09/29 15:12:22;;;;;;;29.30;17.23;;;;;;;;;;765082;178;919321;-68
2021/09/29 15:14:56;;;;;;;23.60;17.40;;;;;;;;;;762457;180;915048;-67
2021/09/29 15:17:25;;;;;;;29.50;17.73;;;;;;;;;;771730;180;919060;-67
2021/09/29 15:19:49;;;;;;;27.48;20.42;;;;;;;;;;753635;183;920424;-67
2021/09/29 15:23:21;;;;;;;26.53;17.87;;;;;;;;;;751042;183;1016229;-68
2021/09/29 15:25:00;;;;;;;26.20;17.63;;;;;;;;;;740263;187;929713;-67
2021/09/29 15:27:40;;;;;;;31.23;18.93;;;;;;;;;;740959;187;918697;-67
2021/09/29 15:29:59;;;;;;;32.80;19.33;;;;;;;;;;743290;187;918328;-67
2021/09/29 15:47:28;;;;;;;30.73;17.43;;;;;;;;;;770845;180;918725;-67
2021/09/29 15:52:47;;;;;;;28.20;18.70;;;;;;;;;;753955;180;918886;-67
2021/09/29 15:55:20;;;;;;;24.60;18.30;;;;;;;;;;773010;180;919278;-69
2021/09/29 16:03:03;;;;;;;31.90;18.87;;;;;;;;;;765411;181;918802;-67
2021/09/29 16:05:26;;;;;;;32.63;19.63;;;;;;;;;;753713;180;919261;-67
2021/09/29 16:08:00;;;;;;;23.93;17.00;;;;;;;;;;776340;180;918890;-67
2021/09/29 16:13:15;;;;;;;28.10;18.90;;;;;;;;;;761767;183;919234;-70
2021/09/29 16:16:07;;;;;;;24.93;18.40;;;;;;;;;;766841;180;630221;-69
2021/09/29 16:18:24;;;;;;;26.40;19.50;;;;;;;;;;747016;186;628819;-68
2021/09/29 16:23:23;;;;;;;28.60;20.00;;;;;;;;;;751120;184;627856;-68
2021/09/29 16:31:21;;;;;;;29.43;19.80;;;;;;;;;;764858;181;917736;-67
2021/09/29 16:33:45;;;;;;;32.67;21.60;;;;;;;;;;767688;180;919134;-70
2021/09/29 16:35:55;;;;;;;26.33;21.43;;;;;;;;;;756784;182;1047633;-69
2021/09/29 16:38:21;;;;;;;30.33;21.63;;;;;;;;;;766751;180;923820;-68
2021/09/29 16:40:47;;;;;;;29.30;20.90;;;;;;;;;;757740;184;919138;-68
2021/09/29 16:43:18;;;;;;;33.13;23.37;;;;;;;;;;770954;180;1020825;-68
2021/09/29 16:45:39;;;;;;;34.63;22.73;;;;;;;;;;758232;184;917671;-68
2021/09/29 16:48:08;;;;;;;34.23;22.80;;;;;;;;;;739327;186;919501;-68
2021/09/29 16:50:43;;;;;;;38.30;23.57;;;;;;;;;;748015;186;919100;-68